sensor_id;sensor_type;location;lat;lon;timestamp;temperature;humidity
7174;DHT22;3628;48.654;8.932;2023-08-08T00:01:41;12.50;99.90
7174;DHT22;3628;48.654;8.932;2023-08-08T00:04:09;12.50;99.90
7174;DHT22;3628;48.654;8.932;2023-08-08T00:06:35;12.50;99.90
7174;DHT22;3628;48.654;8.932;2023-08-08T00:09:01;12.40;99.90
7174;DHT22;3628;48.654;8.932;2023-08-08T00:11:26;12.50;99.90
7174;DHT22;3628;48.654;8.932;2023-08-08T00:13:52;12.50;99.90
7174;DHT22;3628;48.654;8.932;2023-08-08T00:16:18;12.50;99.90
7174;DHT22;3628;48.654;8.932;2023-08-08T00:18:43;12.50;99.90
7174;DHT22;3628;48.654;8.932;2023-08-08T00:21:09;12.60;99.90
7174;DHT22;3628;48.654;8.932;2023-08-08T00:23:34;12.60;99.90
7174;DHT22;3628;48.654;8.932;2023-08-08T00:26:00;12.70;99.90
7174;DHT22;3628;48.654;8.932;2023-08-08T00:28:25;12.80;99.90
7174;DHT22;3628;48.654;8.932;2023-08-08T00:30:51;12.80;99.90
7174;DHT22;3628;48.654;8.932;2023-08-08T00:33:16;12.80;99.90
7174;DHT22;3628;48.654;8.932;2023-08-08T00:35:43;12.80;99.90
7174;DHT22;3628;48.654;8.932;2023-08-08T00:38:10;12.90;99.90
7174;DHT22;3628;48.654;8.932;2023-08-08T00:40:35;12.90;99.90
7174;DHT22;3628;48.654;8.932;2023-08-08T00:43:01;12.90;99.90
7174;DHT22;3628;48.654;8.932;2023-08-08T00:45:27;12.90;99.90
7174;DHT22;3628;48.654;8.932;2023-08-08T00:47:53;12.90;99.90
7174;DHT22;3628;48.654;8.932;2023-08-08T00:50:19;12.90;99.90
7174;DHT22;3628;48.654;8.932;2023-08-08T00:52:45;12.90;99.90
7174;DHT22;3628;48.654;8.932;2023-08-08T00:55:11;12.90;99.90
7174;DHT22;3628;48.654;8.932;2023-08-08T00:57:37;12.90;99.90
7174;DHT22;3628;48.654;8.932;2023-08-08T01:00:05;12.90;99.90
7174;DHT22;3628;48.654;8.932;2023-08-08T01:02:31;12.90;99.90
7174;DHT22;3628;48.654;8.932;2023-08-08T01:04:57;12.90;99.90
7174;DHT22;3628;48.654;8.932;2023-08-08T01:07:31;12.90;99.90
7174;DHT22;3628;48.654;8.932;2023-08-08T01:10:24;12.90;99.90
7174;DHT22;3628;48.654;8.932;2023-08-08T01:12:54;12.90;99.90
7174;DHT22;3628;48.654;8.932;2023-08-08T01:15:21;12.80;99.90
7174;DHT22;3628;48.654;8.932;2023-08-08T01:17:47;12.80;99.90
7174;DHT22;3628;48.654;8.932;2023-08-08T01:20:14;12.70;99.90
7174;DHT22;3628;48.654;8.932;2023-08-08T01:23:22;12.70;99.90
7174;DHT22;3628;48.654;8.932;2023-08-08T01:25:49;12.70;99.90
7174;DHT22;3628;48.654;8.932;2023-08-08T01:28:15;12.70;99.90
7174;DHT22;3628;48.654;8.932;2023-08-08T01:30:41;12.60;99.90
7174;DHT22;3628;48.654;8.932;2023-08-08T01:33:08;12.60;99.90
7174;DHT22;3628;48.654;8.932;2023-08-08T01:35:38;12.60;99.90
7174;DHT22;3628;48.654;8.932;2023-08-08T01:38:43;12.60;99.90
7174;DHT22;3628;48.654;8.932;2023-08-08T01:41:09;12.50;99.90
7174;DHT22;3628;48.654;8.932;2023-08-08T01:43:38;12.50;99.90
7174;DHT22;3628;48.654;8.932;2023-08-08T01:46:04;12.50;99.90
7174;DHT22;3628;48.654;8.932;2023-08-08T01:48:30;12.50;99.90
7174;DHT22;3628;48.654;8.932;2023-08-08T01:50:55;12.50;99.90
7174;DHT22;3628;48.654;8.932;2023-08-08T01:53:21;12.50;99.90
7174;DHT22;3628;48.654;8.932;2023-08-08T01:55:47;12.50;99.90
7174;DHT22;3628;48.654;8.932;2023-08-08T01:58:12;12.50;99.90
7174;DHT22;3628;48.654;8.932;2023-08-08T02:00:38;12.40;99.90
7174;DHT22;3628;48.654;8.932;2023-08-08T02:03:04;12.40;99.90
7174;DHT22;3628;48.654;8.932;2023-08-08T02:05:29;12.30;99.90
7174;DHT22;3628;48.654;8.932;2023-08-08T02:07:55;12.30;99.90
7174;DHT22;3628;48.654;8.932;2023-08-08T02:10:20;12.30;99.90
7174;DHT22;3628;48.654;8.932;2023-08-08T02:12:46;12.30;99.90
7174;DHT22;3628;48.654;8.932;2023-08-08T02:15:11;12.20;99.90
7174;DHT22;3628;48.654;8.932;2023-08-08T02:17:38;12.20;99.90
7174;DHT22;3628;48.654;8.932;2023-08-08T02:20:05;12.20;99.90
7174;DHT22;3628;48.654;8.932;2023-08-08T02:22:31;12.20;99.90
7174;DHT22;3628;48.654;8.932;2023-08-08T02:24:56;12.20;99.90
7174;DHT22;3628;48.654;8.932;2023-08-08T02:27:22;12.20;99.90
7174;DHT22;3628;48.654;8.932;2023-08-08T02:29:47;12.20;99.90
7174;DHT22;3628;48.654;8.932;2023-08-08T02:32:13;12.20;99.90
7174;DHT22;3628;48.654;8.932;2023-08-08T02:34:39;12.20;99.90
7174;DHT22;3628;48.654;8.932;2023-08-08T02:37:04;12.20;99.90
7174;DHT22;3628;48.654;8.932;2023-08-08T02:39:30;12.10;99.90
7174;DHT22;3628;48.654;8.932;2023-08-08T02:41:55;12.10;99.90
7174;DHT22;3628;48.654;8.932;2023-08-08T02:44:21;12.10;99.90
7174;DHT22;3628;48.654;8.932;2023-08-08T02:46:48;12.10;99.90
7174;DHT22;3628;48.654;8.932;2023-08-08T02:49:14;12.00;99.90
7174;DHT22;3628;48.654;8.932;2023-08-08T02:51:39;12.00;99.90
7174;DHT22;3628;48.654;8.932;2023-08-08T02:54:05;11.90;99.90
7174;DHT22;3628;48.654;8.932;2023-08-08T02:56:30;11.90;99.90
7174;DHT22;3628;48.654;8.932;2023-08-08T02:58:56;11.80;99.90
7174;DHT22;3628;48.654;8.932;2023-08-08T03:01:21;11.80;99.90
7174;DHT22;3628;48.654;8.932;2023-08-08T03:03:47;11.70;99.90
7174;DHT22;3628;48.654;8.932;2023-08-08T03:06:13;11.70;99.90
7174;DHT22;3628;48.654;8.932;2023-08-08T03:08:39;11.70;99.90
7174;DHT22;3628;48.654;8.932;2023-08-08T03:11:04;11.70;99.90
7174;DHT22;3628;48.654;8.932;2023-08-08T03:13:30;11.80;99.90
7174;DHT22;3628;48.654;8.932;2023-08-08T03:15:55;11.80;99.90
7174;DHT22;3628;48.654;8.932;2023-08-08T03:18:22;11.80;99.90
7174;DHT22;3628;48.654;8.932;2023-08-08T03:20:48;11.80;99.90
7174;DHT22;3628;48.654;8.932;2023-08-08T03:23:14;11.90;99.90
7174;DHT22;3628;48.654;8.932;2023-08-08T03:25:39;11.90;99.90
7174;DHT22;3628;48.654;8.932;2023-08-08T03:28:05;12.00;99.90
7174;DHT22;3628;48.654;8.932;2023-08-08T03:30:30;12.00;99.90
7174;DHT22;3628;48.654;8.932;2023-08-08T03:32:56;12.10;99.90
7174;DHT22;3628;48.654;8.932;2023-08-08T03:35:21;12.20;99.90
7174;DHT22;3628;48.654;8.932;2023-08-08T03:37:47;12.20;99.90
7174;DHT22;3628;48.654;8.932;2023-08-08T03:40:13;12.30;99.90
7174;DHT22;3628;48.654;8.932;2023-08-08T03:42:41;12.30;99.90
7174;DHT22;3628;48.654;8.932;2023-08-08T03:45:07;12.30;99.90
7174;DHT22;3628;48.654;8.932;2023-08-08T03:47:33;12.40;99.90
7174;DHT22;3628;48.654;8.932;2023-08-08T03:49:58;12.40;99.90
7174;DHT22;3628;48.654;8.932;2023-08-08T03:52:24;12.40;99.90
7174;DHT22;3628;48.654;8.932;2023-08-08T03:54:51;12.50;99.90
7174;DHT22;3628;48.654;8.932;2023-08-08T03:57:17;12.50;99.90
7174;DHT22;3628;48.654;8.932;2023-08-08T03:59:42;12.50;99.90
7174;DHT22;3628;48.654;8.932;2023-08-08T04:02:08;12.50;99.90
7174;DHT22;3628;48.654;8.932;2023-08-08T04:04:34;12.50;99.90
7174;DHT22;3628;48.654;8.932;2023-08-08T04:06:59;12.50;99.90
7174;DHT22;3628;48.654;8.932;2023-08-08T04:09:25;12.50;99.90
7174;DHT22;3628;48.654;8.932;2023-08-08T04:11:50;12.50;99.90
7174;DHT22;3628;48.654;8.932;2023-08-08T04:14:16;12.40;99.90
7174;DHT22;3628;48.654;8.932;2023-08-08T04:16:41;12.40;99.90
7174;DHT22;3628;48.654;8.932;2023-08-08T04:19:07;12.30;99.90
7174;DHT22;3628;48.654;8.932;2023-08-08T04:21:32;12.30;99.90
7174;DHT22;3628;48.654;8.932;2023-08-08T04:23:59;12.20;99.90
7174;DHT22;3628;48.654;8.932;2023-08-08T04:26:25;12.20;99.90
7174;DHT22;3628;48.654;8.932;2023-08-08T04:28:50;12.20;99.90
7174;DHT22;3628;48.654;8.932;2023-08-08T04:31:16;12.10;99.90
7174;DHT22;3628;48.654;8.932;2023-08-08T04:33:41;12.10;99.90
7174;DHT22;3628;48.654;8.932;2023-08-08T04:36:07;12.10;99.90
7174;DHT22;3628;48.654;8.932;2023-08-08T04:38:33;12.10;99.90
7174;DHT22;3628;48.654;8.932;2023-08-08T04:40:58;12.10;99.90
7174;DHT22;3628;48.654;8.932;2023-08-08T04:43:24;12.10;99.90
7174;DHT22;3628;48.654;8.932;2023-08-08T04:45:51;12.10;99.90
7174;DHT22;3628;48.654;8.932;2023-08-08T04:48:16;12.10;99.90
7174;DHT22;3628;48.654;8.932;2023-08-08T04:50:42;12.20;99.90
7174;DHT22;3628;48.654;8.932;2023-08-08T04:53:07;12.20;99.90
7174;DHT22;3628;48.654;8.932;2023-08-08T04:55:33;12.30;99.90
7174;DHT22;3628;48.654;8.932;2023-08-08T04:57:58;12.30;99.90
7174;DHT22;3628;48.654;8.932;2023-08-08T05:00:26;12.30;99.90
7174;DHT22;3628;48.654;8.932;2023-08-08T05:02:51;12.40;99.90
7174;DHT22;3628;48.654;8.932;2023-08-08T05:05:17;12.40;99.90
7174;DHT22;3628;48.654;8.932;2023-08-08T05:07:42;12.50;99.90
7174;DHT22;3628;48.654;8.932;2023-08-08T05:10:08;12.50;99.90
7174;DHT22;3628;48.654;8.932;2023-08-08T05:12:33;12.50;99.90
7174;DHT22;3628;48.654;8.932;2023-08-08T05:14:59;12.50;99.90
7174;DHT22;3628;48.654;8.932;2023-08-08T05:17:25;12.50;99.90
7174;DHT22;3628;48.654;8.932;2023-08-08T05:19:50;12.60;99.90
7174;DHT22;3628;48.654;8.932;2023-08-08T05:22:16;12.60;99.90
7174;DHT22;3628;48.654;8.932;2023-08-08T05:24:41;12.70;99.90
7174;DHT22;3628;48.654;8.932;2023-08-08T05:27:07;12.80;99.90
7174;DHT22;3628;48.654;8.932;2023-08-08T05:29:32;12.90;99.90
7174;DHT22;3628;48.654;8.932;2023-08-08T05:31:58;13.00;99.90
7174;DHT22;3628;48.654;8.932;2023-08-08T05:34:24;13.10;99.90
7174;DHT22;3628;48.654;8.932;2023-08-08T05:36:50;13.20;99.90
7174;DHT22;3628;48.654;8.932;2023-08-08T05:39:15;13.40;99.90
7174;DHT22;3628;48.654;8.932;2023-08-08T05:41:41;13.40;99.90
7174;DHT22;3628;48.654;8.932;2023-08-08T05:44:06;13.60;99.90
7174;DHT22;3628;48.654;8.932;2023-08-08T05:46:32;13.70;99.90
7174;DHT22;3628;48.654;8.932;2023-08-08T05:48:57;13.80;99.90
7174;DHT22;3628;48.654;8.932;2023-08-08T05:51:23;13.90;99.90
7174;DHT22;3628;48.654;8.932;2023-08-08T05:53:48;14.00;99.90
7174;DHT22;3628;48.654;8.932;2023-08-08T05:56:14;14.20;99.90
7174;DHT22;3628;48.654;8.932;2023-08-08T05:58:40;14.30;99.90
7174;DHT22;3628;48.654;8.932;2023-08-08T06:01:05;14.50;99.90
7174;DHT22;3628;48.654;8.932;2023-08-08T06:03:37;14.60;99.90
7174;DHT22;3628;48.654;8.932;2023-08-08T06:06:05;14.70;99.90
7174;DHT22;3628;48.654;8.932;2023-08-08T06:08:31;14.90;99.90
7174;DHT22;3628;48.654;8.932;2023-08-08T06:10:57;15.00;99.90
7174;DHT22;3628;48.654;8.932;2023-08-08T06:13:23;15.20;99.90
7174;DHT22;3628;48.654;8.932;2023-08-08T06:15:48;15.30;99.90
7174;DHT22;3628;48.654;8.932;2023-08-08T06:18:14;15.40;99.90
7174;DHT22;3628;48.654;8.932;2023-08-08T06:20:40;15.60;99.90
7174;DHT22;3628;48.654;8.932;2023-08-08T06:23:06;15.80;99.90
7174;DHT22;3628;48.654;8.932;2023-08-08T06:25:32;15.90;99.90
7174;DHT22;3628;48.654;8.932;2023-08-08T06:27:58;16.00;99.90
7174;DHT22;3628;48.654;8.932;2023-08-08T06:30:23;16.10;99.90
7174;DHT22;3628;48.654;8.932;2023-08-08T06:32:49;16.30;99.90
7174;DHT22;3628;48.654;8.932;2023-08-08T06:35:14;16.40;99.90
7174;DHT22;3628;48.654;8.932;2023-08-08T06:37:42;16.50;99.90
7174;DHT22;3628;48.654;8.932;2023-08-08T06:40:08;16.60;99.90
7174;DHT22;3628;48.654;8.932;2023-08-08T06:42:34;16.70;99.90
7174;DHT22;3628;48.654;8.932;2023-08-08T06:45:00;16.80;99.90
7174;DHT22;3628;48.654;8.932;2023-08-08T06:47:25;16.90;99.90
7174;DHT22;3628;48.654;8.932;2023-08-08T06:49:51;17.00;99.90
7174;DHT22;3628;48.654;8.932;2023-08-08T06:52:16;17.10;99.90
7174;DHT22;3628;48.654;8.932;2023-08-08T06:54:42;17.20;99.90
7174;DHT22;3628;48.654;8.932;2023-08-08T06:57:07;17.30;99.90
7174;DHT22;3628;48.654;8.932;2023-08-08T06:59:33;17.50;99.90
7174;DHT22;3628;48.654;8.932;2023-08-08T07:01:58;17.50;99.90
7174;DHT22;3628;48.654;8.932;2023-08-08T07:04:24;17.50;99.90
7174;DHT22;3628;48.654;8.932;2023-08-08T07:06:50;17.60;99.90
7174;DHT22;3628;48.654;8.932;2023-08-08T07:09:16;17.80;99.90
7174;DHT22;3628;48.654;8.932;2023-08-08T07:11:41;18.00;99.90
7174;DHT22;3628;48.654;8.932;2023-08-08T07:14:07;18.20;99.90
7174;DHT22;3628;48.654;8.932;2023-08-08T07:16:33;18.10;99.90
7174;DHT22;3628;48.654;8.932;2023-08-08T07:18:59;18.00;99.90
7174;DHT22;3628;48.654;8.932;2023-08-08T07:21:24;17.90;99.90
7174;DHT22;3628;48.654;8.932;2023-08-08T07:23:50;17.90;99.90
7174;DHT22;3628;48.654;8.932;2023-08-08T07:26:16;17.90;99.90
7174;DHT22;3628;48.654;8.932;2023-08-08T07:28:41;18.10;99.90
7174;DHT22;3628;48.654;8.932;2023-08-08T07:31:07;18.10;99.90
7174;DHT22;3628;48.654;8.932;2023-08-08T07:33:32;18.20;99.90
7174;DHT22;3628;48.654;8.932;2023-08-08T07:35:58;18.40;99.90
7174;DHT22;3628;48.654;8.932;2023-08-08T07:38:23;18.50;99.90
7174;DHT22;3628;48.654;8.932;2023-08-08T07:40:49;18.60;99.90
7174;DHT22;3628;48.654;8.932;2023-08-08T07:43:15;18.70;99.90
7174;DHT22;3628;48.654;8.932;2023-08-08T07:45:41;18.70;99.90
7174;DHT22;3628;48.654;8.932;2023-08-08T07:48:06;18.90;99.90
7174;DHT22;3628;48.654;8.932;2023-08-08T07:50:32;19.20;99.90
7174;DHT22;3628;48.654;8.932;2023-08-08T07:52:57;19.20;99.90
7174;DHT22;3628;48.654;8.932;2023-08-08T07:55:23;19.30;99.90
7174;DHT22;3628;48.654;8.932;2023-08-08T07:57:48;19.40;99.90
7174;DHT22;3628;48.654;8.932;2023-08-08T08:00:14;19.50;99.90
7174;DHT22;3628;48.654;8.932;2023-08-08T08:02:45;19.80;99.90
7174;DHT22;3628;48.654;8.932;2023-08-08T08:05:12;20.00;99.90
7174;DHT22;3628;48.654;8.932;2023-08-08T08:07:39;20.00;99.90
7174;DHT22;3628;48.654;8.932;2023-08-08T08:10:08;20.30;99.90
7174;DHT22;3628;48.654;8.932;2023-08-08T08:12:34;20.50;99.90
7174;DHT22;3628;48.654;8.932;2023-08-08T08:15:00;20.40;99.90
7174;DHT22;3628;48.654;8.932;2023-08-08T08:17:26;20.50;99.90
7174;DHT22;3628;48.654;8.932;2023-08-08T08:19:53;20.50;99.90
7174;DHT22;3628;48.654;8.932;2023-08-08T08:22:18;20.20;99.90
7174;DHT22;3628;48.654;8.932;2023-08-08T08:24:44;20.30;99.90
7174;DHT22;3628;48.654;8.932;2023-08-08T08:27:11;20.10;99.90
7174;DHT22;3628;48.654;8.932;2023-08-08T08:29:37;19.80;99.90
7174;DHT22;3628;48.654;8.932;2023-08-08T08:32:02;19.70;99.90
7174;DHT22;3628;48.654;8.932;2023-08-08T08:34:28;19.60;99.90
7174;DHT22;3628;48.654;8.932;2023-08-08T08:36:53;19.50;99.90
7174;DHT22;3628;48.654;8.932;2023-08-08T08:39:19;19.40;99.90
7174;DHT22;3628;48.654;8.932;2023-08-08T08:41:49;19.50;99.90
7174;DHT22;3628;48.654;8.932;2023-08-08T08:44:16;19.70;99.90
7174;DHT22;3628;48.654;8.932;2023-08-08T08:46:42;19.90;99.90
7174;DHT22;3628;48.654;8.932;2023-08-08T08:49:09;20.10;99.90
7174;DHT22;3628;48.654;8.932;2023-08-08T08:51:36;20.20;99.90
7174;DHT22;3628;48.654;8.932;2023-08-08T08:54:02;20.40;99.90
7174;DHT22;3628;48.654;8.932;2023-08-08T08:56:28;20.80;99.90
7174;DHT22;3628;48.654;8.932;2023-08-08T08:58:54;21.10;99.90
7174;DHT22;3628;48.654;8.932;2023-08-08T09:01:21;21.30;99.90
7174;DHT22;3628;48.654;8.932;2023-08-08T09:03:47;21.50;99.90
7174;DHT22;3628;48.654;8.932;2023-08-08T09:06:14;21.40;99.90
7174;DHT22;3628;48.654;8.932;2023-08-08T09:08:41;21.40;99.90
7174;DHT22;3628;48.654;8.932;2023-08-08T09:11:07;21.60;99.90
7174;DHT22;3628;48.654;8.932;2023-08-08T09:13:39;21.70;99.80
7174;DHT22;3628;48.654;8.932;2023-08-08T09:16:09;21.40;98.20
7174;DHT22;3628;48.654;8.932;2023-08-08T09:18:35;21.40;99.90
7174;DHT22;3628;48.654;8.932;2023-08-08T09:21:04;21.30;98.60
7174;DHT22;3628;48.654;8.932;2023-08-08T09:23:29;20.90;98.50
7174;DHT22;3628;48.654;8.932;2023-08-08T09:25:55;20.70;98.30
7174;DHT22;3628;48.654;8.932;2023-08-08T09:28:21;20.90;99.90
7174;DHT22;3628;48.654;8.932;2023-08-08T09:30:46;21.00;99.20
7174;DHT22;3628;48.654;8.932;2023-08-08T09:33:12;21.20;99.40
7174;DHT22;3628;48.654;8.932;2023-08-08T09:35:38;21.10;96.30
7174;DHT22;3628;48.654;8.932;2023-08-08T09:38:04;21.30;97.80
7174;DHT22;3628;48.654;8.932;2023-08-08T09:40:30;21.50;97.60
7174;DHT22;3628;48.654;8.932;2023-08-08T09:42:56;21.70;95.90
7174;DHT22;3628;48.654;8.932;2023-08-08T09:45:22;21.90;95.50
7174;DHT22;3628;48.654;8.932;2023-08-08T09:47:50;22.00;95.10
7174;DHT22;3628;48.654;8.932;2023-08-08T09:50:18;21.80;94.50
7174;DHT22;3628;48.654;8.932;2023-08-08T09:52:45;21.50;92.80
7174;DHT22;3628;48.654;8.932;2023-08-08T09:55:11;21.50;94.50
7174;DHT22;3628;48.654;8.932;2023-08-08T09:57:39;21.60;94.70
7174;DHT22;3628;48.654;8.932;2023-08-08T10:00:06;21.60;92.40
7174;DHT22;3628;48.654;8.932;2023-08-08T10:02:35;21.50;92.10
7174;DHT22;3628;48.654;8.932;2023-08-08T10:05:03;21.60;92.50
7174;DHT22;3628;48.654;8.932;2023-08-08T10:07:29;21.80;92.30
7174;DHT22;3628;48.654;8.932;2023-08-08T10:09:56;21.80;91.80
7174;DHT22;3628;48.654;8.932;2023-08-08T10:12:23;21.70;91.10
7174;DHT22;3628;48.654;8.932;2023-08-08T10:14:49;21.70;90.80
7174;DHT22;3628;48.654;8.932;2023-08-08T10:17:16;21.60;91.40
7174;DHT22;3628;48.654;8.932;2023-08-08T10:19:55;21.60;91.90
7174;DHT22;3628;48.654;8.932;2023-08-08T10:22:22;21.60;91.70
7174;DHT22;3628;48.654;8.932;2023-08-08T10:24:52;21.90;91.20
7174;DHT22;3628;48.654;8.932;2023-08-08T10:27:27;22.10;91.40
7174;DHT22;3628;48.654;8.932;2023-08-08T10:29:53;22.20;89.70
7174;DHT22;3628;48.654;8.932;2023-08-08T10:32:24;22.10;87.70
7174;DHT22;3628;48.654;8.932;2023-08-08T10:34:55;22.10;87.50
7174;DHT22;3628;48.654;8.932;2023-08-08T10:37:20;22.10;88.80
7174;DHT22;3628;48.654;8.932;2023-08-08T10:39:59;22.30;88.70
7174;DHT22;3628;48.654;8.932;2023-08-08T10:42:27;22.40;87.60
7174;DHT22;3628;48.654;8.932;2023-08-08T10:44:55;22.30;84.90
7174;DHT22;3628;48.654;8.932;2023-08-08T10:47:24;22.40;83.10
7174;DHT22;3628;48.654;8.932;2023-08-08T10:50:04;22.10;81.40
7174;DHT22;3628;48.654;8.932;2023-08-08T10:52:32;22.20;81.50
7174;DHT22;3628;48.654;8.932;2023-08-08T10:55:01;22.80;82.90
7174;DHT22;3628;48.654;8.932;2023-08-08T10:57:27;23.30;79.20
7174;DHT22;3628;48.654;8.932;2023-08-08T10:59:53;23.20;79.20
7174;DHT22;3628;48.654;8.932;2023-08-08T11:02:20;23.20;78.60
7174;DHT22;3628;48.654;8.932;2023-08-08T11:04:48;23.30;77.40
7174;DHT22;3628;48.654;8.932;2023-08-08T11:07:15;23.50;78.10
7174;DHT22;3628;48.654;8.932;2023-08-08T11:09:41;23.70;75.70
7174;DHT22;3628;48.654;8.932;2023-08-08T11:12:14;23.90;76.50
7174;DHT22;3628;48.654;8.932;2023-08-08T11:14:40;24.00;74.00
7174;DHT22;3628;48.654;8.932;2023-08-08T11:17:06;24.00;74.50
7174;DHT22;3628;48.654;8.932;2023-08-08T11:19:38;24.10;75.80
7174;DHT22;3628;48.654;8.932;2023-08-08T11:22:09;24.40;76.70
7174;DHT22;3628;48.654;8.932;2023-08-08T11:24:35;24.20;72.80
7174;DHT22;3628;48.654;8.932;2023-08-08T11:27:01;24.20;74.40
7174;DHT22;3628;48.654;8.932;2023-08-08T11:29:27;23.90;72.50
7174;DHT22;3628;48.654;8.932;2023-08-08T11:31:56;23.90;71.10
7174;DHT22;3628;48.654;8.932;2023-08-08T11:34:22;23.90;71.10
7174;DHT22;3628;48.654;8.932;2023-08-08T11:36:48;23.90;72.30
7174;DHT22;3628;48.654;8.932;2023-08-08T11:39:14;23.90;71.40
7174;DHT22;3628;48.654;8.932;2023-08-08T11:41:40;24.00;71.10
7174;DHT22;3628;48.654;8.932;2023-08-08T11:44:06;24.10;70.60
7174;DHT22;3628;48.654;8.932;2023-08-08T11:46:33;24.30;72.10
7174;DHT22;3628;48.654;8.932;2023-08-08T11:49:06;24.20;68.30
7174;DHT22;3628;48.654;8.932;2023-08-08T11:51:33;24.10;66.70
7174;DHT22;3628;48.654;8.932;2023-08-08T11:54:00;24.10;68.20
7174;DHT22;3628;48.654;8.932;2023-08-08T11:56:26;24.40;69.10
7174;DHT22;3628;48.654;8.932;2023-08-08T11:58:52;24.60;68.20
7174;DHT22;3628;48.654;8.932;2023-08-08T12:01:25;24.30;67.30
7174;DHT22;3628;48.654;8.932;2023-08-08T12:03:51;24.10;65.60
7174;DHT22;3628;48.654;8.932;2023-08-08T12:06:17;23.90;66.40
7174;DHT22;3628;48.654;8.932;2023-08-08T12:08:44;23.60;69.20
7174;DHT22;3628;48.654;8.932;2023-08-08T12:11:14;23.30;69.50
7174;DHT22;3628;48.654;8.932;2023-08-08T12:13:41;23.30;70.00
7174;DHT22;3628;48.654;8.932;2023-08-08T12:16:11;23.10;68.90
7174;DHT22;3628;48.654;8.932;2023-08-08T12:18:38;22.90;70.80
7174;DHT22;3628;48.654;8.932;2023-08-08T12:21:04;23.10;71.50
7174;DHT22;3628;48.654;8.932;2023-08-08T12:23:30;23.30;71.30
7174;DHT22;3628;48.654;8.932;2023-08-08T12:25:57;23.50;69.90
7174;DHT22;3628;48.654;8.932;2023-08-08T12:28:23;23.60;70.90
7174;DHT22;3628;48.654;8.932;2023-08-08T12:30:49;23.50;72.50
7174;DHT22;3628;48.654;8.932;2023-08-08T12:33:14;23.60;73.00
7174;DHT22;3628;48.654;8.932;2023-08-08T12:35:40;23.80;71.10
7174;DHT22;3628;48.654;8.932;2023-08-08T12:38:05;23.80;70.90
7174;DHT22;3628;48.654;8.932;2023-08-08T12:40:31;24.00;71.00
7174;DHT22;3628;48.654;8.932;2023-08-08T12:42:56;24.00;69.70
7174;DHT22;3628;48.654;8.932;2023-08-08T12:45:22;24.10;69.70
7174;DHT22;3628;48.654;8.932;2023-08-08T12:47:48;24.10;70.10
7174;DHT22;3628;48.654;8.932;2023-08-08T12:50:13;23.90;69.50
7174;DHT22;3628;48.654;8.932;2023-08-08T12:52:40;23.50;70.20
7174;DHT22;3628;48.654;8.932;2023-08-08T12:55:06;23.30;71.10
7174;DHT22;3628;48.654;8.932;2023-08-08T12:57:33;23.00;72.10
7174;DHT22;3628;48.654;8.932;2023-08-08T12:59:59;22.60;71.60
7174;DHT22;3628;48.654;8.932;2023-08-08T13:02:24;22.50;74.80
7174;DHT22;3628;48.654;8.932;2023-08-08T13:04:50;22.50;75.40
7174;DHT22;3628;48.654;8.932;2023-08-08T13:07:16;22.80;76.70
7174;DHT22;3628;48.654;8.932;2023-08-08T13:09:41;23.20;75.20
7174;DHT22;3628;48.654;8.932;2023-08-08T13:12:07;23.40;74.70
7174;DHT22;3628;48.654;8.932;2023-08-08T13:14:33;23.70;73.80
7174;DHT22;3628;48.654;8.932;2023-08-08T13:16:58;24.00;73.40
7174;DHT22;3628;48.654;8.932;2023-08-08T13:19:24;23.90;72.50
7174;DHT22;3628;48.654;8.932;2023-08-08T13:21:54;23.90;71.70
7174;DHT22;3628;48.654;8.932;2023-08-08T13:24:20;23.70;73.20
7174;DHT22;3628;48.654;8.932;2023-08-08T13:26:49;23.50;71.60
7174;DHT22;3628;48.654;8.932;2023-08-08T13:29:15;23.60;69.50
7174;DHT22;3628;48.654;8.932;2023-08-08T13:31:40;23.60;69.20
7174;DHT22;3628;48.654;8.932;2023-08-08T13:34:06;23.70;72.50
7174;DHT22;3628;48.654;8.932;2023-08-08T13:36:31;23.60;74.70
7174;DHT22;3628;48.654;8.932;2023-08-08T13:38:57;23.70;74.20
7174;DHT22;3628;48.654;8.932;2023-08-08T13:41:23;23.50;74.80
7174;DHT22;3628;48.654;8.932;2023-08-08T13:43:49;23.70;73.80
7174;DHT22;3628;48.654;8.932;2023-08-08T13:46:14;23.90;72.80
7174;DHT22;3628;48.654;8.932;2023-08-08T13:48:40;24.00;73.30
7174;DHT22;3628;48.654;8.932;2023-08-08T13:51:06;23.80;73.20
7174;DHT22;3628;48.654;8.932;2023-08-08T13:53:31;23.40;71.60
7174;DHT22;3628;48.654;8.932;2023-08-08T13:55:57;23.20;72.80
7174;DHT22;3628;48.654;8.932;2023-08-08T13:58:23;23.00;73.10
7174;DHT22;3628;48.654;8.932;2023-08-08T14:00:49;23.00;74.30
7174;DHT22;3628;48.654;8.932;2023-08-08T14:03:15;22.80;76.00
7174;DHT22;3628;48.654;8.932;2023-08-08T14:05:40;22.60;76.50
7174;DHT22;3628;48.654;8.932;2023-08-08T14:08:06;22.50;76.80
7174;DHT22;3628;48.654;8.932;2023-08-08T14:10:32;22.20;76.30
7174;DHT22;3628;48.654;8.932;2023-08-08T14:12:58;22.00;77.90
7174;DHT22;3628;48.654;8.932;2023-08-08T14:15:23;21.80;77.90
7174;DHT22;3628;48.654;8.932;2023-08-08T14:17:49;21.60;77.90
7174;DHT22;3628;48.654;8.932;2023-08-08T14:20:15;21.50;79.20
7174;DHT22;3628;48.654;8.932;2023-08-08T14:22:44;21.40;79.40
7174;DHT22;3628;48.654;8.932;2023-08-08T14:25:11;21.60;81.20
7174;DHT22;3628;48.654;8.932;2023-08-08T14:27:37;21.70;81.50
7174;DHT22;3628;48.654;8.932;2023-08-08T14:30:03;22.00;81.70
7174;DHT22;3628;48.654;8.932;2023-08-08T14:32:29;22.20;81.10
7174;DHT22;3628;48.654;8.932;2023-08-08T14:34:55;22.20;80.40
7174;DHT22;3628;48.654;8.932;2023-08-08T14:37:20;22.20;80.10
7174;DHT22;3628;48.654;8.932;2023-08-08T14:39:47;22.30;80.80
7174;DHT22;3628;48.654;8.932;2023-08-08T14:42:12;22.40;81.00
7174;DHT22;3628;48.654;8.932;2023-08-08T14:44:38;22.50;80.10
7174;DHT22;3628;48.654;8.932;2023-08-08T14:47:04;22.40;79.80
7174;DHT22;3628;48.654;8.932;2023-08-08T14:49:30;22.10;77.60
7174;DHT22;3628;48.654;8.932;2023-08-08T14:51:55;22.00;78.80
7174;DHT22;3628;48.654;8.932;2023-08-08T14:54:21;22.00;80.00
7174;DHT22;3628;48.654;8.932;2023-08-08T14:56:46;22.00;79.40
7174;DHT22;3628;48.654;8.932;2023-08-08T14:59:12;22.00;78.80
7174;DHT22;3628;48.654;8.932;2023-08-08T15:01:37;22.10;77.50
7174;DHT22;3628;48.654;8.932;2023-08-08T15:04:03;22.20;77.50
7174;DHT22;3628;48.654;8.932;2023-08-08T15:06:28;22.20;77.90
7174;DHT22;3628;48.654;8.932;2023-08-08T15:08:54;22.10;77.00
7174;DHT22;3628;48.654;8.932;2023-08-08T15:11:20;22.20;78.40
7174;DHT22;3628;48.654;8.932;2023-08-08T15:13:45;22.20;79.20
7174;DHT22;3628;48.654;8.932;2023-08-08T15:16:11;22.60;80.10
7174;DHT22;3628;48.654;8.932;2023-08-08T15:18:36;22.70;79.80
7174;DHT22;3628;48.654;8.932;2023-08-08T15:21:02;22.90;79.50
7174;DHT22;3628;48.654;8.932;2023-08-08T15:23:28;22.90;78.70
7174;DHT22;3628;48.654;8.932;2023-08-08T15:25:53;22.70;79.60
7174;DHT22;3628;48.654;8.932;2023-08-08T15:28:20;22.40;79.20
7174;DHT22;3628;48.654;8.932;2023-08-08T15:30:46;22.10;79.60
7174;DHT22;3628;48.654;8.932;2023-08-08T15:33:11;21.70;80.50
7174;DHT22;3628;48.654;8.932;2023-08-08T15:35:37;21.50;80.80
7174;DHT22;3628;48.654;8.932;2023-08-08T15:38:03;21.30;81.50
7174;DHT22;3628;48.654;8.932;2023-08-08T15:40:29;21.10;82.50
7174;DHT22;3628;48.654;8.932;2023-08-08T15:42:55;21.10;83.70
7174;DHT22;3628;48.654;8.932;2023-08-08T15:45:20;21.00;84.00
7174;DHT22;3628;48.654;8.932;2023-08-08T15:47:46;21.00;83.70
7174;DHT22;3628;48.654;8.932;2023-08-08T15:50:11;21.00;83.80
7174;DHT22;3628;48.654;8.932;2023-08-08T15:52:37;21.00;83.80
7174;DHT22;3628;48.654;8.932;2023-08-08T15:55:03;21.00;83.80
7174;DHT22;3628;48.654;8.932;2023-08-08T15:57:32;21.00;84.10